Time;durP1;ratioP1;P1;durP2;ratioP2;P2;SDS_P1;SDS_P2;PMS_P1;PMS_P2;Temp;Humidity;BMP_temperature;BMP_pressure;BME280_temperature;BME280_humidity;BME280_pressure;Samples;Min_cycle;Max_cycle;Signal;HPM_P1;HPM_P2
2021/09/13 00:02:28;;;;;;;28.10;19.87;;;;;;;12.06;97.29;99912.66;1671397;86;21667;-78
2021/09/13 00:04:54;;;;;;;31.68;20.05;;;;;;;12.04;97.48;99912.72;1670065;85;21448;-76
2021/09/13 00:07:21;;;;;;;29.05;19.62;;;;;;;12.03;97.64;99912.78;1668963;86;21106;-75
2021/09/13 00:09:49;;;;;;;31.48;19.85;;;;;;;12.02;97.45;99909.76;1668981;86;21101;-78
2021/09/13 00:12:16;;;;;;;28.85;19.35;;;;;;;11.99;97.50;99907.27;1668740;86;21152;-77
2021/09/13 00:14:42;;;;;;;31.25;19.60;;;;;;;11.94;97.71;99904.84;1668894;86;21191;-78
2021/09/13 00:17:11;;;;;;;33.00;20.15;;;;;;;11.89;97.88;99906.81;1668660;86;21010;-78
2021/09/13 00:19:39;;;;;;;24.67;17.67;;;;;;;11.84;98.10;99903.03;1668888;86;21089;-79
2021/09/13 00:22:07;;;;;;;31.25;20.15;;;;;;;11.81;98.16;99900.55;1668681;86;21149;-77
2021/09/13 00:24:36;;;;;;;28.75;18.52;;;;;;;11.81;98.44;99905.83;1669053;86;21138;-77
2021/09/13 00:27:06;;;;;;;29.40;19.60;;;;;;;11.80;98.44;99900.17;1668968;86;21556;-77
2021/09/13 00:29:34;;;;;;;29.18;21.02;;;;;;;11.77;98.46;99905.56;1668989;86;21367;-77
2021/09/13 00:32:03;;;;;;;26.57;19.05;;;;;;;11.72;98.60;99900.97;1668718;84;21643;-77
2021/09/13 00:34:33;;;;;;;28.75;19.15;;;;;;;11.68;98.63;99898.07;1668711;86;21057;-77
2021/09/13 00:37:05;;;;;;;29.20;20.00;;;;;;;11.66;98.77;99901.23;1668661;86;21150;-78
2021/09/13 00:39:35;;;;;;;27.52;18.62;;;;;;;11.64;98.86;99901.77;1668446;86;21110;-76
2021/09/13 00:42:06;;;;;;;29.73;19.23;;;;;;;11.64;99.04;99901.77;1668832;86;21077;-78
2021/09/13 00:44:34;;;;;;;28.40;20.40;;;;;;;11.63;99.23;99902.70;1668722;86;21077;-77
2021/09/13 00:47:02;;;;;;;30.23;19.82;;;;;;;11.62;99.24;99899.66;1668650;86;21564;-78
2021/09/13 00:49:31;;;;;;;29.75;20.50;;;;;;;11.61;99.22;99897.95;1668667;86;21585;-76
2021/09/13 00:51:57;;;;;;;30.43;19.75;;;;;;;11.59;99.36;99897.17;1669169;86;21633;-78
2021/09/13 00:54:24;;;;;;;33.35;21.27;;;;;;;11.58;99.29;99898.11;1669242;86;21124;-78
2021/09/13 00:56:52;;;;;;;29.05;19.90;;;;;;;11.55;99.42;99895.14;1668810;86;21081;-77
2021/09/13 00:59:18;;;;;;;27.67;18.95;;;;;;;11.52;99.48;99889.52;1668780;86;21504;-77
2021/09/13 01:01:46;;;;;;;33.00;21.05;;;;;;;11.51;99.56;99893.09;1642294;86;21133;-77
2021/09/13 01:04:14;;;;;;;31.33;21.55;;;;;;;11.50;99.71;99887.44;1669263;86;21631;-78
2021/09/13 01:06:41;;;;;;;32.45;20.37;;;;;;;11.48;99.53;99897.63;1642155;86;21130;-77
2021/09/13 01:09:08;;;;;;;30.68;19.80;;;;;;;11.45;99.52;99895.99;1669519;86;21556;-75
2021/09/13 01:11:37;;;;;;;27.87;20.02;;;;;;;11.43;99.75;99893.88;1670100;86;21065;-76
2021/09/13 01:14:05;;;;;;;30.12;21.62;;;;;;;11.42;100.00;99893.50;1670447;86;21069;-76
2021/09/13 01:16:33;;;;;;;25.45;17.37;;;;;;;11.39;100.00;99900.24;1670560;86;21082;-78
2021/09/13 01:19:02;;;;;;;36.77;21.30;;;;;;;11.36;100.00;99895.55;1670055;86;21178;-76
2021/09/13 01:21:28;;;;;;;31.07;21.40;;;;;;;11.35;100.00;99897.34;1669195;86;21568;-78
2021/09/13 01:23:56;;;;;;;28.30;20.10;;;;;;;11.31;100.00;99893.97;1669380;86;21139;-77
2021/09/13 01:26:22;;;;;;;30.88;20.80;;;;;;;11.28;99.95;99887.98;1641795;86;21081;-77
2021/09/13 01:28:49;;;;;;;31.15;20.48;;;;;;;11.26;100.00;99892.47;1668962;86;21545;-78
2021/09/13 01:31:18;;;;;;;29.37;20.37;;;;;;;11.24;100.00;99889.89;1669036;84;21619;-78
2021/09/13 01:33:46;;;;;;;33.13;22.15;;;;;;;11.22;100.00;99889.56;1668772;86;21061;-79
2021/09/13 01:36:16;;;;;;;29.73;21.20;;;;;;;11.18;100.00;99886.66;1668813;86;21144;-79
2021/09/13 01:38:43;;;;;;;31.40;21.37;;;;;;;11.19;100.00;99896.30;1668968;86;21033;-77
2021/09/13 01:41:10;;;;;;;38.80;21.50;;;;;;;11.15;100.00;99889.44;1668808;86;21178;-77
2021/09/13 01:43:38;;;;;;;31.40;21.33;;;;;;;11.12;100.00;99888.64;1669050;86;21149;-78
2021/09/13 01:46:05;;;;;;;31.93;23.12;;;;;;;11.10;100.00;99891.80;1669049;86;21096;-78
2021/09/13 01:48:32;;;;;;;26.75;19.23;;;;;;;11.08;100.00;99896.28;1668943;86;21140;-77
2021/09/13 01:50:59;;;;;;;34.65;21.57;;;;;;;11.05;100.00;99892.47;1669153;86;21565;-76
2021/09/13 01:53:27;;;;;;;32.70;21.70;;;;;;;11.05;100.00;99899.06;1669442;86;21050;-78
2021/09/13 01:55:55;;;;;;;33.53;22.52;;;;;;;11.03;100.00;99894.31;1684768;84;21584;-78
2021/09/13 01:58:22;;;;;;;33.55;21.57;;;;;;;11.02;100.00;99893.92;1697208;84;21073;-77
2021/09/13 02:00:48;;;;;;;29.85;21.77;;;;;;;11.02;100.00;99897.00;1697230;84;21518;-78
2021/09/13 02:03:15;;;;;;;38.48;22.52;;;;;;;11.01;100.00;99893.98;1697087;84;21022;-78
2021/09/13 02:05:49;;;;;;;34.73;21.42;;;;;;;11.01;100.00;99896.15;1697174;84;21080;-78
2021/09/13 02:08:17;;;;;;;31.70;20.08;;;;;;;10.98;100.00;99895.44;1697046;84;21045;-77
2021/09/13 02:10:43;;;;;;;34.63;21.12;;;;;;;10.94;100.00;99890.75;1697145;84;21049;-77
2021/09/13 02:13:11;;;;;;;34.50;21.87;;;;;;;10.92;100.00;99897.39;1697252;84;21134;-79
2021/09/13 02:15:38;;;;;;;32.75;21.50;;;;;;;10.91;100.00;99896.16;1669017;84;21086;-78
2021/09/13 02:18:05;;;;;;;30.12;20.95;;;;;;;10.91;100.00;99894.84;1696933;84;21628;-79
2021/09/13 02:20:35;;;;;;;35.80;21.87;;;;;;;10.89;100.00;99890.94;1698064;84;21037;-78
2021/09/13 02:23:01;;;;;;;36.68;23.40;;;;;;;10.88;100.00;99887.05;1701057;84;21014;-77
2021/09/13 02:25:29;;;;;;;35.28;22.93;;;;;;;10.87;100.00;99891.46;1698725;84;21089;-78
2021/09/13 02:27:56;;;;;;;33.18;23.87;;;;;;;10.86;100.00;99890.23;1698139;84;21607;-78
2021/09/13 02:30:23;;;;;;;33.78;22.95;;;;;;;10.85;100.00;99889.81;1697109;84;21077;-78
2021/09/13 02:32:50;;;;;;;34.23;23.20;;;;;;;10.83;100.00;99895.61;1692046;83;21649;-76
2021/09/13 02:35:17;;;;;;;33.38;22.15;;;;;;;10.82;100.00;99892.59;1686965;85;21117;-76
2021/09/13 02:37:46;;;;;;;38.90;23.95;;;;;;;10.81;100.00;99898.77;1686600;85;21536;-77
2021/09/13 02:40:13;;;;;;;33.73;23.98;;;;;;;10.81;100.00;99896.13;1686949;85;21077;-75
2021/09/13 02:42:40;;;;;;;39.73;24.90;;;;;;;10.80;100.00;99902.33;1686574;85;21065;-77
2021/09/13 02:45:07;;;;;;;41.00;23.70;;;;;;;10.77;100.00;99901.16;1686986;85;21077;-77
2021/09/13 02:47:34;;;;;;;29.07;20.37;;;;;;;10.73;100.00;99901.73;1686979;85;21194;-76
2021/09/13 02:50:03;;;;;;;39.70;24.87;;;;;;;10.70;100.00;99905.34;1686904;85;21105;-77
2021/09/13 02:52:30;;;;;;;32.95;21.33;;;;;;;10.70;100.00;99907.98;1687118;85;21631;-77
2021/09/13 02:54:56;;;;;;;37.10;24.25;;;;;;;10.70;100.00;99901.39;1682956;85;21121;-78
2021/09/13 02:57:23;;;;;;;40.48;24.65;;;;;;;10.69;100.00;99900.98;1659654;86;21089;-78
2021/09/13 02:59:51;;;;;;;36.90;25.35;;;;;;;10.69;100.00;99901.45;1659863;86;21101;-78
2021/09/13 03:02:17;;;;;;;36.88;24.57;;;;;;;10.67;100.00;99904.16;1659942;86;21105;-77
2021/09/13 03:04:44;;;;;;;36.95;23.77;;;;;;;10.65;100.00;99895.47;1661452;86;21054;-78
2021/09/13 03:07:14;;;;;;;39.83;24.72;;;;;;;10.66;100.00;99901.12;1663140;83;21021;-78
2021/09/13 03:09:41;;;;;;;34.30;23.27;;;;;;;10.62;100.00;99899.52;1663257;86;20988;-78
2021/09/13 03:12:09;;;;;;;32.45;22.30;;;;;;;10.59;100.00;99895.70;1662137;86;21625;-77
2021/09/13 03:14:36;;;;;;;38.08;24.55;;;;;;;10.57;100.00;99893.59;1638613;86;21125;-77
2021/09/13 03:17:03;;;;;;;36.75;24.32;;;;;;;10.57;100.00;99897.55;1659315;86;21581;-79
2021/09/13 03:19:30;;;;;;;42.85;22.62;;;;;;;10.54;100.00;99895.52;1659519;86;21042;-78
2021/09/13 03:21:57;;;;;;;37.65;25.02;;;;;;;10.51;100.00;99896.47;1665679;85;21047;-80
2021/09/13 03:24:26;;;;;;;34.38;24.35;;;;;;;10.50;100.00;99896.08;1687294;85;21073;-78
2021/09/13 03:26:54;;;;;;;40.95;25.08;;;;;;;10.49;100.00;99895.70;1665484;85;21121;-76
2021/09/13 03:29:21;;;;;;;37.17;25.77;;;;;;;10.47;100.00;99894.90;1687554;85;21055;-77
2021/09/13 03:31:48;;;;;;;33.90;22.82;;;;;;;10.44;100.00;99895.00;1688443;84;21728;-76
2021/09/13 03:34:15;;;;;;;39.78;25.02;;;;;;;10.45;100.00;99898.05;1688212;85;21106;-78
2021/09/13 03:36:43;;;;;;;41.85;25.12;;;;;;;10.45;100.00;99896.73;1687465;85;21089;-77
2021/09/13 03:39:09;;;;;;;37.60;24.27;;;;;;;10.45;100.00;99896.73;1687497;85;21089;-79
2021/09/13 03:41:40;;;;;;;47.15;25.72;;;;;;;10.46;100.00;99904.55;1686802;85;21541;-79
2021/09/13 03:44:06;;;;;;;30.72;21.60;;;;;;;10.46;100.00;99903.70;1686938;85;21086;-79
2021/09/13 03:46:34;;;;;;;42.53;25.10;;;;;;;10.47;100.00;99902.80;1686981;85;21592;-77
2021/09/13 03:49:03;;;;;;;40.90;25.80;;;;;;;10.51;100.00;99901.73;1685003;85;21593;-79
2021/09/13 03:51:32;;;;;;;38.70;24.82;;;;;;;10.52;100.00;99900.83;1686856;85;21058;-78
2021/09/13 03:54:01;;;;;;;39.60;25.00;;;;;;;10.54;100.00;99897.68;1687166;85;21110;-78
2021/09/13 03:56:28;;;;;;;31.55;21.75;;;;;;;10.53;100.00;99902.53;1665384;85;21402;-79
2021/09/13 03:58:55;;;;;;;37.83;24.43;;;;;;;10.57;100.00;99898.86;1659476;86;21077;-79
2021/09/13 04:01:23;;;;;;;37.50;25.08;;;;;;;10.61;100.00;99903.09;1659387;84;21532;-78
2021/09/13 04:03:50;;;;;;;42.43;24.55;;;;;;;10.81;100.00;99902.72;1659460;84;21188;-78
2021/09/13 04:12:02;;;;;;;41.63;23.27;;;;;;;11.92;100.00;99892.19;1658015;85;21169;-79
2021/09/13 04:14:41;;;;;;;42.60;24.77;;;;;;;12.23;100.00;99891.58;1641442;86;21085;-79
2021/09/13 04:17:28;;;;;;;41.90;24.65;;;;;;;12.44;98.80;99887.52;1591643;89;21837;-79
2021/09/13 04:20:15;;;;;;;42.03;23.42;;;;;;;12.68;97.54;99895.58;1591794;90;21112;-78
2021/09/13 04:22:43;;;;;;;46.73;23.32;;;;;;;13.06;96.57;99891.45;1602006;85;21037;-79
2021/09/13 04:25:14;;;;;;;41.60;23.10;;;;;;;13.54;95.14;99887.22;1664970;79;21069;-78
2021/09/13 04:27:45;;;;;;;;;;;;;;;14.06;93.33;99893.67;1672943;85;21670;-76
2021/09/13 04:30:28;;;;;;;33.60;21.02;;;;;;;14.59;91.30;99891.63;1669789;85;21098;-75
2021/09/13 04:33:14;;;;;;;34.55;22.48;;;;;;;15.09;88.31;99892.25;1643864;87;21126;-76
2021/09/13 04:35:59;;;;;;;37.28;22.37;;;;;;;15.59;85.56;99888.34;1644079;87;21162;-76
2021/09/13 04:38:27;;;;;;;39.10;21.93;;;;;;;16.03;82.97;99893.18;1665552;86;20997;-76
2021/09/13 04:40:55;;;;;;;30.08;20.37;;;;;;;16.47;81.57;99889.02;1665492;86;21014;-77
2021/09/13 04:43:30;;;;;;;32.45;21.17;;;;;;;16.89;79.38;99889.80;1665828;86;21568;-76
2021/09/13 04:47:15;;;;;;;29.27;21.27;;;;;;;17.60;76.37;99883.64;1796179;79;22590;-77
2021/09/13 04:50:01;;;;;;;33.42;21.87;;;;;;;17.92;74.79;99887.18;1756940;81;21013;-76
2021/09/13 04:52:35;;;;;;;28.65;19.45;;;;;;;18.32;72.07;99878.98;1752653;81;21794;-76
2021/09/13 04:55:04;;;;;;;64.20;22.65;;;;;;;18.62;71.09;99887.37;1755531;81;21061;-76
2021/09/13 04:57:31;;;;;;;35.03;21.02;;;;;;;18.96;69.42;99880.88;1750861;82;21049;-77
2021/09/13 04:59:57;;;;;;;28.67;19.85;;;;;;;19.17;68.12;99878.39;1750663;82;21037;-75
2021/09/13 05:02:24;;;;;;;31.35;20.10;;;;;;;19.36;67.27;99876.47;1750839;82;21148;-75
2021/09/13 05:04:51;;;;;;;30.10;20.32;;;;;;;19.69;66.16;99873.48;1750815;82;21085;-78
2021/09/13 05:07:20;;;;;;;28.80;20.20;;;;;;;20.07;65.06;99869.59;1721577;82;21013;-77
2021/09/13 05:09:47;;;;;;;27.63;19.20;;;;;;;20.51;63.64;99863.77;1751176;81;20981;-76
2021/09/13 05:12:14;;;;;;;26.77;19.27;;;;;;;21.01;62.04;99865.91;1746809;82;21057;-76
2021/09/13 05:14:42;;;;;;;25.05;18.92;;;;;;;21.46;60.09;99861.11;1721381;83;21053;-77
2021/09/13 05:17:10;;;;;;;27.22;18.32;;;;;;;21.84;58.74;99867.64;1721592;83;21081;-75
2021/09/13 05:19:37;;;;;;;26.35;19.10;;;;;;;22.28;57.57;99869.55;1721092;83;21078;-77
2021/09/13 05:22:04;;;;;;;27.65;17.98;;;;;;;22.71;56.02;99861.63;1720980;83;21040;-78
2021/09/13 05:24:30;;;;;;;21.23;16.32;;;;;;;23.10;54.46;99858.06;1720878;83;20986;-77
2021/09/13 05:26:59;;;;;;;29.10;17.37;;;;;;;23.45;53.08;99862.81;1720507;83;21049;-77
2021/09/13 05:29:25;;;;;;;31.62;17.67;;;;;;;23.85;52.07;99857.66;1720813;83;21060;-75
2021/09/13 05:31:53;;;;;;;26.17;16.23;;;;;;;24.26;50.94;99846.03;1720484;82;21205;-76
2021/09/13 05:34:19;;;;;;;27.00;16.42;;;;;;;24.60;49.81;99849.44;1720951;83;21108;-77
2021/09/13 05:36:46;;;;;;;25.60;16.23;;;;;;;24.95;48.72;99855.28;1720470;83;21120;-77
2021/09/13 05:39:13;;;;;;;22.52;15.20;;;;;;;25.31;47.84;99847.17;1720684;83;21592;-77
2021/09/13 05:41:45;;;;;;;22.25;14.50;;;;;;;25.70;46.43;99842.16;1713528;83;21803;-75
2021/09/13 05:44:12;;;;;;;24.87;13.13;;;;;;;26.09;45.36;99843.48;1721014;83;21108;-77
2021/09/13 05:46:39;;;;;;;25.68;14.45;;;;;;;26.46;43.99;99844.95;1720995;83;21571;-76
2021/09/13 05:49:10;;;;;;;22.95;13.55;;;;;;;26.85;43.14;99841.61;1721076;83;21143;-74
2021/09/13 05:51:40;;;;;;;19.27;12.55;;;;;;;27.16;42.14;99842.61;1721289;83;21088;-76
2021/09/13 05:54:09;;;;;;;24.27;13.50;;;;;;;27.46;41.17;99839.38;1721428;83;21114;-76
2021/09/13 05:56:41;;;;;;;16.60;12.15;;;;;;;27.74;39.86;99837.91;1775684;78;20965;-79
2021/09/13 05:59:08;;;;;;;17.90;12.05;;;;;;;27.99;38.72;99835.14;1822027;78;21064;-78
2021/09/13 06:01:35;;;;;;;15.48;10.90;;;;;;;28.19;38.04;99836.91;1822224;78;21041;-78
2021/09/13 06:04:04;;;;;;;18.40;11.30;;;;;;;28.37;37.01;99839.34;1822022;78;20985;-78
2021/09/13 06:06:32;;;;;;;22.58;12.07;;;;;;;28.50;36.66;99838.24;1820563;78;21567;-78
2021/09/13 06:08:59;;;;;;;16.02;11.18;;;;;;;28.73;36.36;99844.17;1821955;78;21029;-77
2021/09/13 06:11:27;;;;;;;16.77;10.20;;;;;;;28.96;35.37;99843.63;1792466;77;21045;-78
2021/09/13 06:13:55;;;;;;;17.62;10.25;;;;;;;29.20;34.65;99837.70;1855545;77;21146;-77
2021/09/13 06:16:22;;;;;;;15.13;10.40;;;;;;;29.43;33.97;99833.05;1855366;77;21080;-80
2021/09/13 06:18:49;;;;;;;14.38;10.58;;;;;;;29.63;34.01;99828.39;1855671;77;21461;-79
2021/09/13 06:21:18;;;;;;;18.42;9.45;;;;;;;29.87;33.46;99825.42;1855350;77;21060;-78
2021/09/13 06:23:46;;;;;;;13.93;9.90;;;;;;;30.15;32.49;99834.73;1855525;77;21048;-79
2021/09/13 06:26:14;;;;;;;15.32;8.85;;;;;;;30.26;31.32;99833.74;1855386;77;21111;-78
2021/09/13 06:28:43;;;;;;;19.15;9.38;;;;;;;30.27;31.44;99835.41;1855339;77;20998;-77
2021/09/13 06:31:10;;;;;;;17.90;9.80;;;;;;;30.36;31.14;99829.34;1855293;77;21986;-78
2021/09/13 06:33:37;;;;;;;15.18;9.05;;;;;;;30.49;30.86;99836.81;1855748;77;21041;-77
2021/09/13 06:36:05;;;;;;;14.93;9.03;;;;;;;30.73;30.74;99840.47;1855446;77;21079;-79
2021/09/13 06:38:33;;;;;;;15.55;9.03;;;;;;;31.08;30.71;99839.26;1855068;77;21528;-78
2021/09/13 06:41:00;;;;;;;14.35;8.53;;;;;;;31.44;30.10;99837.43;1855341;77;21096;-77
2021/09/13 06:43:30;;;;;;;12.98;8.98;;;;;;;31.82;28.98;99840.58;1855517;77;22077;-78
2021/09/13 06:48:38;;;;;;;16.48;9.00;;;;;;;32.07;29.06;99835.48;1855597;77;21009;-76
2021/09/13 06:51:05;;;;;;;12.40;8.23;;;;;;;32.33;28.24;99837.44;1855824;77;21639;-78
2021/09/13 06:53:31;;;;;;;15.90;8.60;;;;;;;32.59;28.31;99829.02;1855983;77;20973;-78
2021/09/13 06:55:59;;;;;;;16.20;8.00;;;;;;;32.99;27.45;99829.02;1838778;77;21104;-79
2021/09/13 06:58:25;;;;;;;12.40;7.65;;;;;;;33.20;26.73;99832.94;1828278;78;21240;-77
2021/09/13 07:00:54;;;;;;;18.35;8.20;;;;;;;33.43;26.78;99828.92;1827793;78;22166;-77
2021/09/13 07:03:21;;;;;;;14.63;7.92;;;;;;;33.75;26.69;99829.91;1828142;78;21090;-77
2021/09/13 07:05:48;;;;;;;14.28;8.40;;;;;;;34.04;26.47;99827.13;1828144;78;21048;-78
2021/09/13 07:08:15;;;;;;;11.95;8.20;;;;;;;34.24;25.54;99827.60;1830627;78;22146;-77
2021/09/13 07:10:42;;;;;;;10.85;7.55;;;;;;;34.27;24.67;99829.89;1831008;78;21029;-76
2021/09/13 07:13:08;;;;;;;14.20;8.15;;;;;;;34.06;24.87;99829.12;1830278;78;21005;-77
2021/09/13 07:15:36;;;;;;;12.60;7.30;;;;;;;34.15;25.06;99829.75;1828398;78;21095;-77
2021/09/13 07:18:05;;;;;;;12.70;7.75;;;;;;;34.45;24.63;99827.25;1828144;78;21045;-77
2021/09/13 07:20:31;;;;;;;13.90;7.70;;;;;;;34.80;24.57;99828.18;1828040;78;21088;-78
2021/09/13 07:22:58;;;;;;;11.22;7.47;;;;;;;34.89;24.36;99830.95;1828083;78;21658;-76
2021/09/13 07:25:25;;;;;;;10.63;7.65;;;;;;;35.17;24.10;99837.05;1828351;78;21048;-77
2021/09/13 07:27:51;;;;;;;12.63;7.55;;;;;;;35.32;22.87;99837.55;1828044;78;21508;-78
2021/09/13 07:30:19;;;;;;;14.95;6.85;;;;;;;35.01;22.84;99834.33;1828087;78;21036;-77
2021/09/13 07:32:47;;;;;;;13.83;7.95;;;;;;;34.82;23.42;99835.64;1828027;78;21494;-76
2021/09/13 07:35:13;;;;;;;13.80;7.15;;;;;;;34.92;23.58;99834.30;1828134;78;21036;-76
2021/09/13 07:37:40;;;;;;;13.65;7.42;;;;;;;35.16;23.67;99843.60;1828304;78;21670;-77
2021/09/13 07:40:08;;;;;;;16.00;7.37;;;;;;;35.40;23.32;99836.41;1828424;78;21049;-78
2021/09/13 07:42:34;;;;;;;34.70;9.83;;;;;;;35.48;23.51;99842.97;1828314;78;21049;-77
2021/09/13 07:45:04;;;;;;;15.68;7.85;;;;;;;35.75;23.28;99842.68;1828304;78;21957;-78
2021/09/13 07:47:31;;;;;;;12.65;7.58;;;;;;;35.69;22.64;99837.59;1831041;78;21084;-77
2021/09/13 07:49:59;;;;;;;10.98;7.60;;;;;;;35.43;22.47;99846.89;1831128;78;21032;-77
2021/09/13 07:52:26;;;;;;;15.03;7.95;;;;;;;35.14;22.65;99842.45;1831637;78;21045;-76
2021/09/13 07:54:53;;;;;;;13.25;8.28;;;;;;;34.95;23.19;99839.31;1828521;78;21091;-77
2021/09/13 07:57:19;;;;;;;16.82;7.72;;;;;;;34.88;23.14;99838.86;1817757;78;21248;-78
2021/09/13 07:59:46;;;;;;;14.13;8.15;;;;;;;34.55;23.12;99841.80;1816716;79;21042;-79
2021/09/13 08:02:13;;;;;;;14.98;7.90;;;;;;;34.09;23.65;99839.31;1817062;79;21582;-77
2021/09/13 08:04:40;;;;;;;13.98;7.83;;;;;;;34.10;23.88;99841.03;1817077;79;21013;-78
2021/09/13 08:07:07;;;;;;;16.07;8.65;;;;;;;34.18;23.72;99838.03;1817586;79;21021;-77
2021/09/13 08:09:35;;;;;;;15.35;8.00;;;;;;;33.70;24.03;99839.78;1816829;79;21556;-77
2021/09/13 08:12:01;;;;;;;13.75;8.53;;;;;;;33.36;24.42;99833.52;1816963;79;21088;-78
2021/09/13 08:14:29;;;;;;;19.35;8.55;;;;;;;33.33;24.80;99832.59;1817027;79;21028;-78
2021/09/13 08:16:58;;;;;;;12.15;7.75;;;;;;;33.61;24.42;99830.98;1816475;79;21040;-77
2021/09/13 08:19:26;;;;;;;9.93;7.60;;;;;;;34.06;23.84;99831.86;1816889;79;21049;-79
2021/09/13 08:21:53;;;;;;;12.35;8.00;;;;;;;34.42;23.53;99830.44;1817073;79;21612;-77
2021/09/13 08:24:20;;;;;;;10.88;7.92;;;;;;;34.59;23.17;99827.17;1816940;79;21607;-78
2021/09/13 08:26:47;;;;;;;9.23;6.90;;;;;;;34.72;23.61;99827.11;1816450;79;21505;-78
2021/09/13 08:29:15;;;;;;;12.82;7.33;;;;;;;35.11;22.10;99827.86;1816685;79;20973;-77
2021/09/13 08:31:42;;;;;;;10.93;7.65;;;;;;;35.21;22.12;99824.60;1816615;79;20994;-77
2021/09/13 08:34:08;;;;;;;14.30;7.45;;;;;;;34.85;22.49;99826.97;1816537;79;21517;-75
2021/09/13 08:36:35;;;;;;;18.77;7.87;;;;;;;34.57;23.14;99821.08;1816683;79;21005;-78
2021/09/13 08:39:03;;;;;;;14.93;8.50;;;;;;;34.75;23.25;99822.55;1816727;79;21610;-78
2021/09/13 08:41:32;;;;;;;13.55;8.00;;;;;;;35.01;23.21;99820.64;1816743;79;21017;-77
2021/09/13 08:43:59;;;;;;;15.08;7.78;;;;;;;35.38;22.69;99826.20;1817068;79;21048;-77
2021/09/13 08:46:38;;;;;;;13.30;8.28;;;;;;;35.53;22.37;99821.75;1816867;79;21947;-77
2021/09/13 08:49:03;;;;;;;15.25;8.85;;;;;;;35.48;22.22;99825.17;1814993;79;21056;-76
2021/09/13 08:51:30;;;;;;;15.53;8.45;;;;;;;35.48;22.22;99825.17;1816366;79;21579;-76
2021/09/13 08:54:03;;;;;;;14.58;8.13;;;;;;;35.46;22.00;99813.61;1816983;79;21611;-79
2021/09/13 08:56:34;;;;;;;15.63;8.18;;;;;;;35.60;21.75;99812.38;1805766;79;21038;-77
2021/09/13 08:58:57;;;;;;;13.05;7.45;;;;;;;35.28;22.08;99812.52;1802117;79;22156;-78
2021/09/13 09:01:24;;;;;;;16.57;8.65;;;;;;;35.30;21.92;99818.59;1802749;79;21026;-77
2021/09/13 09:03:51;;;;;;;21.48;10.30;;;;;;;35.17;21.95;99819.27;1802775;79;21053;-78
2021/09/13 09:06:42;;;;;;;16.85;8.43;;;;;;;34.60;22.55;99815.16;1802953;79;21571;-78
2021/09/13 09:09:13;;;;;;;23.15;10.28;;;;;;;34.58;22.81;99811.80;1802727;79;21105;-78
2021/09/13 09:11:56;;;;;;;28.27;11.40;;;;;;;35.01;22.42;99816.00;1802661;79;21140;-79
2021/09/13 09:14:48;;;;;;;12.55;8.50;;;;;;;35.32;21.79;99814.78;1802663;79;21041;-78
2021/09/13 09:17:26;;;;;;;12.28;8.03;;;;;;;35.62;21.41;99804.81;1802775;79;21608;-77
2021/09/13 09:20:10;;;;;;;16.87;8.50;;;;;;;35.51;20.92;99808.27;1802443;79;21053;-78
2021/09/13 09:22:45;;;;;;;11.93;8.35;;;;;;;35.13;21.57;99806.55;1802701;79;21092;-78
2021/09/13 09:25:09;;;;;;;12.43;7.92;;;;;;;34.52;22.42;99807.24;1766465;81;21141;-77
2021/09/13 09:27:58;;;;;;;14.80;8.53;;;;;;;34.34;22.29;99808.81;1767448;81;21625;-76
2021/09/13 09:30:39;;;;;;;16.23;8.18;;;;;;;34.26;22.49;99800.36;1769382;81;21034;-77
2021/09/13 09:33:10;;;;;;;12.28;8.50;;;;;;;34.44;22.83;99801.48;1769676;81;21102;-78
2021/09/13 09:35:50;;;;;;;11.50;7.75;;;;;;;34.70;22.30;99804.61;1768051;81;21073;-79
2021/09/13 09:38:35;;;;;;;12.90;7.83;;;;;;;34.95;20.96;99801.01;1767893;81;21566;-77
2021/09/13 09:41:06;;;;;;;15.35;7.42;;;;;;;35.12;21.03;99804.06;1768244;81;21050;-76
2021/09/13 09:43:57;;;;;;;12.60;7.97;;;;;;;35.23;20.08;99795.94;1767452;81;21003;-79
2021/09/13 09:46:43;;;;;;;12.05;7.80;;;;;;;34.86;20.91;99795.84;1767828;81;21657;-77
2021/09/13 09:49:13;;;;;;;12.33;7.97;;;;;;;34.85;21.22;99792.78;1767611;81;21061;-77
2021/09/13 09:51:44;;;;;;;13.93;7.80;;;;;;;34.98;21.11;99797.84;1768256;81;21058;-78
2021/09/13 09:54:24;;;;;;;16.62;8.35;;;;;;;34.61;21.69;99790.91;1767643;81;21549;-76
2021/09/13 09:57:05;;;;;;;20.77;15.10;;;;;;;34.06;22.27;99790.88;1762717;81;21112;-76
2021/09/13 09:59:38;;;;;;;13.48;8.45;;;;;;;33.44;22.68;99791.00;1790102;80;21005;-77
2021/09/13 10:02:13;;;;;;;12.78;9.08;;;;;;;33.02;23.54;99795.36;1825785;78;21056;-78
2021/09/13 10:04:40;;;;;;;12.28;8.13;;;;;;;32.70;23.64;99788.88;1826976;78;21503;-78
2021/09/13 10:07:07;;;;;;;16.95;8.50;;;;;;;32.49;24.10;99794.50;1826995;78;21040;-78
2021/09/13 10:09:34;;;;;;;16.65;8.78;;;;;;;32.47;24.06;99796.59;1826719;78;21065;-79
2021/09/13 10:12:04;;;;;;;12.10;8.13;;;;;;;32.29;24.22;99784.39;1826898;78;21020;-78
2021/09/13 10:14:32;;;;;;;14.70;9.23;;;;;;;31.96;24.98;99787.87;1826929;78;21638;-77
2021/09/13 10:17:00;;;;;;;14.93;8.73;;;;;;;32.02;25.22;99785.38;1826911;78;21055;-77
2021/09/13 10:19:28;;;;;;;11.22;8.70;;;;;;;32.42;24.43;99790.90;1826776;78;21134;-79
2021/09/13 10:21:54;;;;;;;12.35;8.50;;;;;;;32.88;24.32;99786.05;1826901;78;21138;-76
2021/09/13 10:24:25;;;;;;;12.00;8.55;;;;;;;33.33;23.58;99778.02;1827169;78;21076;-77
2021/09/13 10:26:55;;;;;;;14.20;8.40;;;;;;;33.29;23.90;99782.22;1827823;78;21088;-79
2021/09/13 10:29:28;;;;;;;13.45;8.10;;;;;;;33.52;23.51;99778.50;1826267;78;21526;-75
2021/09/13 10:32:07;;;;;;;13.38;7.83;;;;;;;33.79;22.81;99778.41;1827402;78;21063;-76
2021/09/13 10:34:50;;;;;;;17.05;8.25;;;;;;;33.78;22.84;99767.19;1827712;78;20997;-76
2021/09/13 10:37:22;;;;;;;11.80;7.67;;;;;;;33.81;22.88;99761.28;1826867;78;21045;-78
2021/09/13 10:40:18;;;;;;;12.85;7.62;;;;;;;33.98;22.20;99770.66;1827012;78;21009;-77
2021/09/13 10:42:50;;;;;;;14.80;8.03;;;;;;;33.89;22.33;99765.14;1826692;78;21052;-78
2021/09/13 10:45:29;;;;;;;13.85;8.30;;;;;;;33.31;23.13;99765.11;1827182;78;21539;-78
2021/09/13 10:48:01;;;;;;;16.70;8.78;;;;;;;32.70;23.44;99762.14;1826706;78;21083;-77
2021/09/13 10:50:47;;;;;;;15.43;8.93;;;;;;;32.26;24.35;99762.19;1826911;78;21048;-78
2021/09/13 10:53:27;;;;;;;16.20;8.40;;;;;;;32.11;24.43;99757.73;1826802;78;21540;-77
2021/09/13 10:55:59;;;;;;;15.32;8.80;;;;;;;32.22;24.08;99757.66;1808589;78;21040;-76
2021/09/13 10:58:41;;;;;;;12.68;8.38;;;;;;;32.30;24.10;99757.48;1782770;79;21037;-79
2021/09/13 11:01:10;;;;;;;11.20;8.23;;;;;;;32.44;24.26;99752.88;1782881;80;21113;-79
2021/09/13 11:03:39;;;;;;;14.38;8.38;;;;;;;32.84;24.05;99750.70;1782723;80;21080;-77
2021/09/13 11:06:15;;;;;;;14.95;8.58;;;;;;;32.96;24.13;99756.64;1783167;80;21006;-78
2021/09/13 11:08:48;;;;;;;14.83;8.60;;;;;;;32.74;24.27;99751.97;1782153;80;21152;-79
2021/09/13 11:11:36;;;;;;;15.48;8.85;;;;;;;32.48;24.46;99750.56;1782465;80;21528;-79
2021/09/13 11:14:08;;;;;;;14.07;8.83;;;;;;;32.28;24.80;99744.58;1782713;80;21092;-78
2021/09/13 11:16:44;;;;;;;18.37;8.85;;;;;;;32.18;25.18;99738.69;1782916;80;21049;-77
2021/09/13 11:19:11;;;;;;;13.93;9.48;;;;;;;32.05;25.37;99730.48;1782479;80;21057;-78
2021/09/13 11:21:45;;;;;;;17.95;8.55;;;;;;;31.98;25.58;99727.24;1782532;80;21045;-77
2021/09/13 11:24:20;;;;;;;15.28;9.03;;;;;;;32.02;25.66;99728.19;1782401;80;21009;-77
2021/09/13 11:26:56;;;;;;;13.83;8.50;;;;;;;31.75;25.75;99726.73;1782172;80;21100;-77
2021/09/13 11:29:28;;;;;;;14.35;8.63;;;;;;;31.63;26.10;99721.55;1782435;80;21064;-78
2021/09/13 11:32:07;;;;;;;14.05;8.88;;;;;;;31.70;26.11;99719.68;1783001;80;21636;-77
2021/09/13 11:34:40;;;;;;;17.73;9.73;;;;;;;31.92;26.06;99725.30;1781579;80;21112;-78
2021/09/13 11:37:18;;;;;;;28.38;9.80;;;;;;;32.19;25.67;99719.95;1782722;80;21571;-78
2021/09/13 11:39:51;;;;;;;16.57;9.08;;;;;;;32.40;25.65;99725.20;1782552;80;21486;-78
2021/09/13 11:42:25;;;;;;;15.60;8.58;;;;;;;32.54;24.97;99725.23;1782831;80;21049;-78